SAS556 LPPR-EKCH
Flight info
| Callsign | SAS556 |
|---|---|
| Flight time | 2h 52m |
| Altitude | 34000 |
| Route | TURON P600 ASDEB DCT LOTEE DCT AZFIC DCT ERIGA DCT GODIX DCT PODEM/N0449F360 UN873 BAZOS DCT BELDI/N0450F350 DCT VICOT DCT DOSUR DCT TALSA P729 TUDLO |
| Aircraft | A320/M-SDE3FGHIRWY/LB1 |
Departure
| Time | 2026-04-25 17:19 |
|---|---|
| Airport | Francisco de Sá Carneiro Airport (LPPR) |
Arrival
| Time | 2026-04-25 20:12 |
|---|---|
| Airport | Copenhagen Kastrup Airport (EKCH) |
| Time | Latitude | Longitude | Altitude | Speed | Heading |
|---|---|---|---|---|---|
| 2026-04-25 16:50 | 41.23684 | -8.67246 | 238 ft | 0 kts | 79° |
| 2026-04-25 17:11 | 41.23682 | -8.67261 | 236 ft | 4 kts | 81° |
| 2026-04-25 17:11 | 41.23679 | -8.67296 | 238 ft | 4 kts | 90° |
| 2026-04-25 17:11 | 41.23682 | -8.67331 | 238 ft | 4 kts | 116° |
| 2026-04-25 17:12 | 41.23695 | -8.67350 | 240 ft | 1 kts | 165° |
| 2026-04-25 17:15 | 41.23686 | -8.67347 | 238 ft | 2 kts | 165° |
| 2026-04-25 17:15 | 41.23678 | -8.67344 | 237 ft | 0 kts | 165° |
| 2026-04-25 17:15 | 41.23666 | -8.67340 | 237 ft | 5 kts | 166° |
| 2026-04-25 17:16 | 41.23604 | -8.67328 | 235 ft | 12 kts | 182° |
| 2026-04-25 17:16 | 41.23532 | -8.67376 | 235 ft | 12 kts | 202° |
| 2026-04-25 17:16 | 41.23448 | -8.67376 | 236 ft | 13 kts | 166° |
| 2026-04-25 17:16 | 41.23389 | -8.67363 | 235 ft | 6 kts | 173° |
| 2026-04-25 17:17 | 41.23348 | -8.67385 | 235 ft | 7 kts | 220° |
| 2026-04-25 17:17 | 41.23336 | -8.67409 | 236 ft | 2 kts | 244° |
| 2026-04-25 17:17 | 41.23328 | -8.67443 | 235 ft | 6 kts | 256° |
| 2026-04-25 17:17 | 41.23317 | -8.67512 | 235 ft | 10 kts | 258° |
| 2026-04-25 17:18 | 41.23303 | -8.67611 | 235 ft | 12 kts | 259° |
| 2026-04-25 17:18 | 41.23301 | -8.67716 | 236 ft | 12 kts | 306° |
| 2026-04-25 17:18 | 41.23381 | -8.67753 | 238 ft | 15 kts | 349° |
| 2026-04-25 17:18 | 41.23670 | -8.67829 | 229 ft | 74 kts | 348° |
| 2026-04-25 17:19 | 41.24360 | -8.68011 | 222 ft | 125 kts | 349° |
| 2026-04-25 17:19 | 41.25354 | -8.68277 | 277 ft | 159 kts | 347° |
| 2026-04-25 17:19 | 41.26435 | -8.68557 | 837 ft | 158 kts | 348° |
| 2026-04-25 17:19 | 41.27518 | -8.68838 | 1412 ft | 159 kts | 346° |
| 2026-04-25 17:20 | 41.28639 | -8.69138 | 1727 ft | 174 kts | 348° |
| 2026-04-25 17:20 | 41.29900 | -8.69468 | 1952 ft | 196 kts | 347° |
| 2026-04-25 17:20 | 41.31301 | -8.69833 | 2186 ft | 216 kts | 347° |
| 2026-04-25 17:20 | 41.32839 | -8.70233 | 2570 ft | 235 kts | 347° |
| 2026-04-25 17:21 | 41.34499 | -8.70665 | 3093 ft | 249 kts | 348° |
| 2026-04-25 17:21 | 41.36229 | -8.71116 | 3777 ft | 257 kts | 348° |
| 2026-04-25 17:21 | 41.38021 | -8.71420 | 4527 ft | 263 kts | 3° |
| 2026-04-25 17:21 | 41.39855 | -8.71099 | 5220 ft | 269 kts | 9° |
| 2026-04-25 17:22 | 41.41716 | -8.70701 | 5948 ft | 272 kts | 10° |
| 2026-04-25 17:22 | 41.42959 | -8.70430 | 6446 ft | 274 kts | 10° |
| 2026-04-25 17:22 | 41.45494 | -8.69871 | 7402 ft | 278 kts | 11° |
| 2026-04-25 17:22 | 41.47419 | -8.69448 | 8095 ft | 282 kts | 11° |
| 2026-04-25 17:23 | 41.49364 | -8.69018 | 8812 ft | 285 kts | 11° |
| 2026-04-25 17:23 | 41.51331 | -8.68583 | 9508 ft | 288 kts | 11° |
| 2026-04-25 17:23 | 41.53318 | -8.68145 | 10175 ft | 292 kts | 12° |
| 2026-04-25 17:23 | 41.55385 | -8.67690 | 10397 ft | 312 kts | 12° |
| 2026-04-25 17:24 | 41.57598 | -8.67200 | 10516 ft | 333 kts | 11° |
| 2026-04-25 17:24 | 41.59957 | -8.66679 | 10640 ft | 353 kts | 10° |
| 2026-04-25 17:24 | 41.62437 | -8.66135 | 10871 ft | 367 kts | 10° |
| 2026-04-25 17:24 | 41.64979 | -8.65578 | 11365 ft | 373 kts | 11° |
| 2026-04-25 17:25 | 41.66678 | -8.65207 | 11728 ft | 375 kts | 10° |
| 2026-04-25 17:25 | 41.70160 | -8.64453 | 12379 ft | 382 kts | 10° |
| 2026-04-25 17:25 | 41.72799 | -8.63881 | 12932 ft | 385 kts | 9° |
| 2026-04-25 17:25 | 41.75453 | -8.63299 | 13493 ft | 388 kts | 9° |
| 2026-04-25 17:26 | 41.78125 | -8.62710 | 14031 ft | 391 kts | 9° |
| 2026-04-25 17:26 | 41.80816 | -8.62118 | 14529 ft | 393 kts | 9° |
| 2026-04-25 17:26 | 41.83526 | -8.61520 | 15025 ft | 396 kts | 9° |
| 2026-04-25 17:26 | 41.86251 | -8.60911 | 15532 ft | 398 kts | 10° |
| 2026-04-25 17:27 | 41.88994 | -8.60293 | 16003 ft | 402 kts | 10° |
| 2026-04-25 17:27 | 41.91760 | -8.59672 | 16500 ft | 405 kts | 10° |
| 2026-04-25 17:27 | 41.94550 | -8.59049 | 17009 ft | 408 kts | 10° |
| 2026-04-25 17:27 | 41.95459 | -8.58848 | 17170 ft | 409 kts | 10° |
| 2026-04-25 17:28 | 42.00151 | -8.57810 | 18027 ft | 413 kts | 9° |
| 2026-04-25 17:28 | 42.02996 | -8.57180 | 18516 ft | 416 kts | 10° |
| 2026-04-25 17:28 | 42.05865 | -8.56544 | 18956 ft | 419 kts | 10° |
| 2026-04-25 17:28 | 42.08751 | -8.55942 | 19406 ft | 421 kts | 8° |
| 2026-04-25 17:29 | 42.11667 | -8.55436 | 19806 ft | 425 kts | 7° |
| 2026-04-25 17:29 | 42.14613 | -8.54992 | 20227 ft | 427 kts | 6° |
| 2026-04-25 17:29 | 42.17577 | -8.54568 | 20648 ft | 429 kts | 6° |
| 2026-04-25 17:29 | 42.20558 | -8.54138 | 21050 ft | 431 kts | 6° |
| 2026-04-25 17:30 | 42.23547 | -8.53692 | 21443 ft | 433 kts | 7° |
| 2026-04-25 17:30 | 42.26544 | -8.53226 | 21818 ft | 435 kts | 7° |
| 2026-04-25 17:30 | 42.29559 | -8.52745 | 22184 ft | 437 kts | 7° |
| 2026-04-25 17:30 | 42.32583 | -8.52255 | 22512 ft | 439 kts | 7° |
| 2026-04-25 17:31 | 42.35623 | -8.51762 | 22843 ft | 441 kts | 7° |
| 2026-04-25 17:31 | 42.38678 | -8.51268 | 23186 ft | 443 kts | 6° |
| 2026-04-25 17:31 | 42.41750 | -8.50774 | 23518 ft | 445 kts | 6° |
| 2026-04-25 17:31 | 42.44831 | -8.50280 | 23811 ft | 447 kts | 6° |
| 2026-04-25 17:32 | 42.47905 | -8.49624 | 24086 ft | 448 kts | 13° |
| 2026-04-25 17:32 | 42.50870 | -8.48319 | 24359 ft | 450 kts | 23° |
| 2026-04-25 17:32 | 42.53652 | -8.46357 | 24625 ft | 452 kts | 32° |
| 2026-04-25 17:32 | 42.56159 | -8.43799 | 24996 ft | 451 kts | 41° |
| 2026-04-25 17:33 | 42.58517 | -8.41006 | 25383 ft | 449 kts | 41° |
| 2026-04-25 17:33 | 42.60867 | -8.38222 | 25778 ft | 448 kts | 41° |
| 2026-04-25 17:33 | 42.63214 | -8.35441 | 26170 ft | 447 kts | 41° |
| 2026-04-25 17:33 | 42.65552 | -8.32669 | 26620 ft | 444 kts | 40° |
| 2026-04-25 17:34 | 42.67872 | -8.29917 | 27104 ft | 441 kts | 40° |
| 2026-04-25 17:34 | 42.70176 | -8.27185 | 27566 ft | 439 kts | 40° |
| 2026-04-25 17:34 | 42.72476 | -8.24451 | 27980 ft | 438 kts | 41° |
| 2026-04-25 17:34 | 42.74765 | -8.21722 | 28383 ft | 437 kts | 41° |
| 2026-04-25 17:35 | 42.77051 | -8.18993 | 28784 ft | 437 kts | 40° |
| 2026-04-25 17:35 | 42.79328 | -8.16272 | 29214 ft | 435 kts | 40° |
| 2026-04-25 17:35 | 42.81603 | -8.13555 | 29646 ft | 434 kts | 40° |
| 2026-04-25 17:35 | 42.83867 | -8.10851 | 30075 ft | 433 kts | 40° |
| 2026-04-25 17:36 | 42.86128 | -8.08152 | 30450 ft | 432 kts | 41° |
| 2026-04-25 17:36 | 42.88387 | -8.05451 | 30770 ft | 432 kts | 39° |
| 2026-04-25 17:36 | 42.90640 | -8.02754 | 31112 ft | 431 kts | 39° |
| 2026-04-25 17:36 | 42.92883 | -8.00065 | 31433 ft | 431 kts | 40° |
| 2026-04-25 17:37 | 42.95144 | -7.97350 | 31759 ft | 431 kts | 39° |
| 2026-04-25 17:37 | 42.97391 | -7.94644 | 32056 ft | 431 kts | 40° |
| 2026-04-25 17:37 | 42.99643 | -7.91933 | 32365 ft | 431 kts | 39° |
| 2026-04-25 17:37 | 43.01893 | -7.89222 | 32684 ft | 431 kts | 38° |
| 2026-04-25 17:38 | 43.04144 | -7.86504 | 32991 ft | 431 kts | 39° |
| 2026-04-25 17:38 | 43.04873 | -7.85623 | 33093 ft | 431 kts | 39° |
| 2026-04-25 17:38 | 43.08639 | -7.81068 | 33631 ft | 431 kts | 39° |
| 2026-04-25 17:38 | 43.10882 | -7.78352 | 33939 ft | 431 kts | 39° |
| 2026-04-25 17:39 | 43.13126 | -7.75633 | 34220 ft | 430 kts | 39° |
| 2026-04-25 17:39 | 43.15364 | -7.72916 | 34467 ft | 430 kts | 39° |
| 2026-04-25 17:39 | 43.17600 | -7.70200 | 34724 ft | 430 kts | 39° |
| 2026-04-25 17:39 | 43.19839 | -7.67477 | 34907 ft | 431 kts | 39° |
| 2026-04-25 17:40 | 43.22083 | -7.64744 | 35087 ft | 432 kts | 39° |
| 2026-04-25 17:40 | 43.24330 | -7.62007 | 35143 ft | 435 kts | 39° |
| 2026-04-25 17:40 | 43.28881 | -7.56471 | 35161 ft | 445 kts | 39° |
| 2026-04-25 17:41 | 43.33526 | -7.50806 | 35160 ft | 448 kts | 39° |
| 2026-04-25 17:41 | 43.38176 | -7.45105 | 35169 ft | 448 kts | 39° |
| 2026-04-25 17:42 | 43.42825 | -7.39384 | 35173 ft | 449 kts | 39° |
| 2026-04-25 17:42 | 43.46729 | -7.34587 | 35184 ft | 449 kts | 39° |
| 2026-04-25 17:43 | 43.51384 | -7.28843 | 35186 ft | 449 kts | 39° |
| 2026-04-25 17:43 | 43.56005 | -7.23131 | 35200 ft | 449 kts | 39° |
| 2026-04-25 17:44 | 43.60656 | -7.17383 | 35225 ft | 448 kts | 40° |
| 2026-04-25 17:44 | 43.65289 | -7.11634 | 35220 ft | 448 kts | 40° |
| 2026-04-25 17:45 | 43.69165 | -7.06812 | 35214 ft | 447 kts | 40° |
| 2026-04-25 17:45 | 43.74539 | -7.00118 | 35217 ft | 447 kts | 40° |
| 2026-04-25 17:46 | 43.79160 | -6.94347 | 35215 ft | 447 kts | 40° |
| 2026-04-25 17:46 | 43.83782 | -6.88571 | 35216 ft | 448 kts | 40° |
| 2026-04-25 17:47 | 43.88405 | -6.82785 | 35224 ft | 448 kts | 40° |
| 2026-04-25 17:47 | 43.93015 | -6.76989 | 35227 ft | 447 kts | 40° |
| 2026-04-25 17:48 | 43.99913 | -6.68292 | 35225 ft | 446 kts | 40° |
| 2026-04-25 17:49 | 44.04503 | -6.62497 | 35231 ft | 446 kts | 40° |
| 2026-04-25 17:49 | 44.09095 | -6.56679 | 35226 ft | 446 kts | 40° |
| 2026-04-25 17:50 | 44.13683 | -6.50849 | 35229 ft | 446 kts | 40° |
| 2026-04-25 17:50 | 44.18266 | -6.45022 | 35233 ft | 446 kts | 40° |
| 2026-04-25 17:51 | 44.22847 | -6.39198 | 35231 ft | 445 kts | 40° |
| 2026-04-25 17:51 | 44.27410 | -6.33367 | 35242 ft | 445 kts | 40° |
| 2026-04-25 17:52 | 44.31969 | -6.27531 | 35236 ft | 445 kts | 40° |
| 2026-04-25 17:52 | 44.36525 | -6.21683 | 35226 ft | 445 kts | 41° |
| 2026-04-25 17:53 | 44.41076 | -6.15825 | 35223 ft | 444 kts | 41° |
| 2026-04-25 17:53 | 44.45619 | -6.09961 | 35232 ft | 444 kts | 41° |
| 2026-04-25 17:54 | 44.50131 | -6.04120 | 35226 ft | 444 kts | 40° |
| 2026-04-25 17:54 | 44.54696 | -5.98212 | 35227 ft | 444 kts | 40° |
| 2026-04-25 17:55 | 44.59231 | -5.92345 | 35218 ft | 443 kts | 40° |
| 2026-04-25 17:55 | 44.63756 | -5.86464 | 35213 ft | 443 kts | 41° |
| 2026-04-25 17:56 | 44.68219 | -5.80576 | 35217 ft | 443 kts | 42° |
| 2026-04-25 17:56 | 44.72631 | -5.74523 | 35217 ft | 444 kts | 43° |
| 2026-04-25 17:57 | 44.77029 | -5.68434 | 35222 ft | 443 kts | 42° |
| 2026-04-25 17:57 | 44.81471 | -5.62323 | 35225 ft | 443 kts | 42° |
| 2026-04-25 17:58 | 44.85849 | -5.56309 | 35217 ft | 442 kts | 42° |
| 2026-04-25 17:58 | 44.88046 | -5.53282 | 35332 ft | 441 kts | 42° |
| 2026-04-25 17:58 | 44.90203 | -5.50218 | 35693 ft | 439 kts | 44° |
| 2026-04-25 17:58 | 44.92303 | -5.47101 | 35962 ft | 438 kts | 45° |
| 2026-04-25 17:59 | 44.94368 | -5.43947 | 36158 ft | 438 kts | 45° |
| 2026-04-25 17:59 | 44.98474 | -5.37589 | 36203 ft | 438 kts | 45° |
| 2026-04-25 18:00 | 45.02587 | -5.31249 | 36201 ft | 437 kts | 45° |
| 2026-04-25 18:00 | 45.06714 | -5.24946 | 36204 ft | 436 kts | 44° |
| 2026-04-25 18:01 | 45.10850 | -5.18646 | 36197 ft | 437 kts | 45° |
| 2026-04-25 18:01 | 45.14975 | -5.12315 | 36200 ft | 438 kts | 45° |
| 2026-04-25 18:02 | 45.19101 | -5.05978 | 36199 ft | 438 kts | 45° |
| 2026-04-25 18:02 | 45.23230 | -4.99628 | 36209 ft | 438 kts | 45° |
| 2026-04-25 18:03 | 45.27357 | -4.93250 | 36206 ft | 438 kts | 45° |
| 2026-04-25 18:03 | 45.31476 | -4.86863 | 36208 ft | 438 kts | 45° |
| 2026-04-25 18:04 | 45.35597 | -4.80473 | 36208 ft | 439 kts | 45° |
| 2026-04-25 18:04 | 45.39722 | -4.74071 | 36207 ft | 439 kts | 45° |
| 2026-04-25 18:05 | 45.43836 | -4.67645 | 36206 ft | 439 kts | 45° |
| 2026-04-25 18:05 | 45.47950 | -4.61214 | 36209 ft | 439 kts | 45° |
| 2026-04-25 18:06 | 45.52064 | -4.54778 | 36211 ft | 439 kts | 45° |
| 2026-04-25 18:06 | 45.56177 | -4.48328 | 36204 ft | 440 kts | 45° |
| 2026-04-25 18:07 | 45.60281 | -4.41857 | 36199 ft | 440 kts | 45° |
| 2026-04-25 18:07 | 45.64360 | -4.35421 | 36194 ft | 440 kts | 45° |
| 2026-04-25 18:08 | 45.68473 | -4.28931 | 36197 ft | 440 kts | 45° |
| 2026-04-25 18:08 | 45.72583 | -4.22431 | 36196 ft | 441 kts | 45° |
| 2026-04-25 18:09 | 45.76686 | -4.15906 | 36195 ft | 441 kts | 45° |
| 2026-04-25 18:09 | 45.80786 | -4.09361 | 36194 ft | 442 kts | 45° |
| 2026-04-25 18:10 | 45.84892 | -4.02800 | 36195 ft | 442 kts | 45° |
| 2026-04-25 18:10 | 45.89004 | -3.96250 | 36196 ft | 442 kts | 45° |
| 2026-04-25 18:11 | 45.93112 | -3.89677 | 36201 ft | 442 kts | 45° |
| 2026-04-25 18:11 | 45.97206 | -3.83087 | 36197 ft | 442 kts | 45° |
| 2026-04-25 18:12 | 46.01297 | -3.76480 | 36191 ft | 442 kts | 45° |
| 2026-04-25 18:12 | 46.05386 | -3.69880 | 36189 ft | 442 kts | 45° |
| 2026-04-25 18:13 | 46.09475 | -3.63268 | 36182 ft | 442 kts | 45° |
| 2026-04-25 18:13 | 46.13557 | -3.56633 | 36188 ft | 442 kts | 46° |
| 2026-04-25 18:14 | 46.19676 | -3.46664 | 36178 ft | 443 kts | 45° |
| 2026-04-25 18:14 | 46.23764 | -3.40002 | 36177 ft | 443 kts | 46° |
| 2026-04-25 18:15 | 46.27842 | -3.33319 | 36176 ft | 443 kts | 46° |
| 2026-04-25 18:15 | 46.31921 | -3.26633 | 36175 ft | 443 kts | 46° |
| 2026-04-25 18:16 | 46.35970 | -3.19992 | 36185 ft | 443 kts | 46° |
| 2026-04-25 18:17 | 46.42079 | -3.09902 | 36175 ft | 445 kts | 46° |
| 2026-04-25 18:17 | 46.46150 | -3.03154 | 36171 ft | 445 kts | 46° |
| 2026-04-25 18:18 | 46.50237 | -2.96383 | 36170 ft | 446 kts | 46° |
| 2026-04-25 18:18 | 46.54317 | -2.89604 | 36175 ft | 446 kts | 46° |
| 2026-04-25 18:19 | 46.58394 | -2.82811 | 36177 ft | 446 kts | 46° |
| 2026-04-25 18:19 | 46.62468 | -2.76003 | 36175 ft | 446 kts | 46° |
| 2026-04-25 18:20 | 46.66540 | -2.69182 | 36164 ft | 447 kts | 46° |
| 2026-04-25 18:20 | 46.70610 | -2.62335 | 36160 ft | 447 kts | 46° |
| 2026-04-25 18:21 | 46.74685 | -2.55477 | 36161 ft | 447 kts | 46° |
| 2026-04-25 18:21 | 46.78754 | -2.48608 | 36164 ft | 448 kts | 46° |
| 2026-04-25 18:22 | 46.82824 | -2.41714 | 36174 ft | 448 kts | 47° |
| 2026-04-25 18:22 | 46.86907 | -2.34823 | 36171 ft | 448 kts | 45° |
| 2026-04-25 18:23 | 46.91221 | -2.28261 | 36163 ft | 448 kts | 42° |
| 2026-04-25 18:23 | 46.95677 | -2.21893 | 36168 ft | 448 kts | 42° |
| 2026-04-25 18:24 | 47.00093 | -2.15459 | 36167 ft | 448 kts | 43° |
| 2026-04-25 18:24 | 47.04466 | -2.08935 | 36159 ft | 448 kts | 43° |
| 2026-04-25 18:25 | 47.08790 | -2.02437 | 36166 ft | 448 kts | 43° |
| 2026-04-25 18:25 | 47.13143 | -1.95893 | 36157 ft | 448 kts | 43° |
| 2026-04-25 18:26 | 47.17500 | -1.89343 | 36163 ft | 448 kts | 43° |
| 2026-04-25 18:26 | 47.21852 | -1.82789 | 36152 ft | 448 kts | 43° |
| 2026-04-25 18:27 | 47.26200 | -1.76224 | 36147 ft | 448 kts | 43° |
| 2026-04-25 18:27 | 47.30543 | -1.69652 | 36136 ft | 448 kts | 43° |
| 2026-04-25 18:28 | 47.34880 | -1.63071 | 36152 ft | 448 kts | 43° |
| 2026-04-25 18:28 | 47.39220 | -1.56466 | 36154 ft | 448 kts | 43° |
| 2026-04-25 18:29 | 47.44980 | -1.47660 | 36153 ft | 448 kts | 44° |
| 2026-04-25 18:30 | 47.53635 | -1.34393 | 36152 ft | 448 kts | 44° |
| 2026-04-25 18:30 | 47.57966 | -1.27740 | 36153 ft | 449 kts | 44° |
| 2026-04-25 18:31 | 47.62291 | -1.21076 | 36156 ft | 449 kts | 44° |
| 2026-04-25 18:31 | 47.66610 | -1.14395 | 36166 ft | 449 kts | 44° |
| 2026-04-25 18:32 | 47.70922 | -1.07709 | 36161 ft | 448 kts | 44° |
| 2026-04-25 18:32 | 47.75228 | -1.01004 | 36168 ft | 449 kts | 44° |
| 2026-04-25 18:33 | 47.79535 | -0.94295 | 36154 ft | 449 kts | 44° |
| 2026-04-25 18:33 | 47.83844 | -0.87570 | 36160 ft | 449 kts | 44° |
| 2026-04-25 18:34 | 47.88151 | -0.80821 | 36166 ft | 449 kts | 44° |
| 2026-04-25 18:34 | 47.92454 | -0.74060 | 36156 ft | 450 kts | 45° |
| 2026-04-25 18:35 | 47.96731 | -0.67339 | 36161 ft | 450 kts | 44° |
| 2026-04-25 18:35 | 48.01024 | -0.60561 | 36161 ft | 450 kts | 45° |
| 2026-04-25 18:36 | 48.05317 | -0.53752 | 36169 ft | 450 kts | 45° |
| 2026-04-25 18:36 | 48.09608 | -0.46940 | 36171 ft | 450 kts | 45° |
| 2026-04-25 18:37 | 48.13892 | -0.40121 | 36171 ft | 450 kts | 45° |
| 2026-04-25 18:37 | 48.18170 | -0.33291 | 36175 ft | 450 kts | 45° |
| 2026-04-25 18:38 | 48.22452 | -0.26459 | 36184 ft | 449 kts | 45° |
| 2026-04-25 18:38 | 48.26731 | -0.19616 | 36178 ft | 450 kts | 45° |
| 2026-04-25 18:39 | 48.30999 | -0.12754 | 36181 ft | 450 kts | 45° |
| 2026-04-25 18:39 | 48.35259 | -0.05871 | 36180 ft | 450 kts | 45° |
| 2026-04-25 18:40 | 48.39464 | 0.01108 | 36175 ft | 451 kts | 47° |
| 2026-04-25 18:40 | 48.43564 | 0.08257 | 36183 ft | 451 kts | 47° |
| 2026-04-25 18:41 | 48.47650 | 0.15444 | 36187 ft | 452 kts | 47° |
| 2026-04-25 18:41 | 48.51765 | 0.22610 | 36190 ft | 452 kts | 47° |
| 2026-04-25 18:42 | 48.55214 | 0.28611 | 36190 ft | 452 kts | 47° |
| 2026-04-25 18:42 | 48.59989 | 0.36943 | 36187 ft | 452 kts | 47° |
| 2026-04-25 18:43 | 48.64100 | 0.44144 | 36188 ft | 452 kts | 47° |
| 2026-04-25 18:43 | 48.68201 | 0.51360 | 36187 ft | 453 kts | 47° |
| 2026-04-25 18:44 | 48.72304 | 0.58594 | 36177 ft | 453 kts | 47° |
| 2026-04-25 18:44 | 48.76417 | 0.65843 | 36185 ft | 454 kts | 47° |
| 2026-04-25 18:45 | 48.80524 | 0.73108 | 36177 ft | 454 kts | 47° |
| 2026-04-25 18:45 | 48.84634 | 0.80405 | 36184 ft | 455 kts | 47° |
| 2026-04-25 18:46 | 48.88739 | 0.87714 | 36182 ft | 455 kts | 47° |
| 2026-04-25 18:46 | 48.92850 | 0.95052 | 36170 ft | 457 kts | 48° |
| 2026-04-25 18:47 | 48.96964 | 1.02435 | 36168 ft | 458 kts | 48° |
| 2026-04-25 18:47 | 49.01076 | 1.09831 | 36170 ft | 458 kts | 48° |
| 2026-04-25 18:48 | 49.05198 | 1.17257 | 36177 ft | 459 kts | 48° |
| 2026-04-25 18:48 | 49.09323 | 1.24691 | 36192 ft | 459 kts | 48° |
| 2026-04-25 18:49 | 49.13430 | 1.32126 | 36191 ft | 458 kts | 48° |
| 2026-04-25 18:49 | 49.17539 | 1.39586 | 36164 ft | 460 kts | 48° |
| 2026-04-25 18:50 | 49.21661 | 1.47096 | 36162 ft | 461 kts | 49° |
| 2026-04-25 18:50 | 49.25790 | 1.54622 | 36180 ft | 462 kts | 46° |
| 2026-04-25 18:51 | 49.29594 | 1.60343 | 36197 ft | 461 kts | 41° |
| 2026-04-25 18:51 | 49.35034 | 1.68259 | 36203 ft | 461 kts | 41° |
| 2026-04-25 18:52 | 49.39693 | 1.75065 | 36202 ft | 461 kts | 42° |
| 2026-04-25 18:52 | 49.44334 | 1.81888 | 36195 ft | 462 kts | 42° |
| 2026-04-25 18:53 | 49.48975 | 1.88748 | 36183 ft | 464 kts | 42° |
| 2026-04-25 18:53 | 49.53622 | 1.95618 | 36211 ft | 464 kts | 42° |
| 2026-04-25 18:54 | 49.60613 | 2.05966 | 36213 ft | 464 kts | 42° |
| 2026-04-25 18:55 | 49.65258 | 2.12874 | 36215 ft | 464 kts | 42° |
| 2026-04-25 18:55 | 49.69869 | 2.19757 | 36215 ft | 464 kts | 42° |
| 2026-04-25 18:56 | 49.74504 | 2.26695 | 36228 ft | 464 kts | 42° |
| 2026-04-25 18:56 | 49.79137 | 2.33653 | 36214 ft | 465 kts | 42° |
| 2026-04-25 18:57 | 49.83779 | 2.40630 | 36211 ft | 466 kts | 42° |
| 2026-04-25 18:57 | 49.88431 | 2.47622 | 36209 ft | 466 kts | 42° |
| 2026-04-25 18:58 | 49.93077 | 2.54652 | 36207 ft | 467 kts | 42° |
| 2026-04-25 18:58 | 49.98137 | 2.60834 | 36215 ft | 461 kts | 28° |
| 2026-04-25 18:58 | 50.00893 | 2.63380 | 36218 ft | 461 kts | 28° |
| 2026-04-25 18:59 | 50.11919 | 2.73607 | 36215 ft | 461 kts | 28° |
| 2026-04-25 19:00 | 50.20171 | 2.81321 | 36220 ft | 462 kts | 28° |
| 2026-04-25 19:01 | 50.28464 | 2.89095 | 36219 ft | 463 kts | 28° |
| 2026-04-25 19:01 | 50.33978 | 2.94288 | 36219 ft | 463 kts | 28° |
| 2026-04-25 19:02 | 50.42244 | 3.02101 | 36222 ft | 463 kts | 28° |
| 2026-04-25 19:03 | 50.48684 | 3.08196 | 36220 ft | 462 kts | 28° |
| 2026-04-25 19:03 | 50.56004 | 3.15158 | 36217 ft | 462 kts | 29° |
| 2026-04-25 19:04 | 50.64236 | 3.23020 | 36238 ft | 461 kts | 29° |
| 2026-04-25 19:05 | 50.69703 | 3.28243 | 35751 ft | 459 kts | 29° |
| 2026-04-25 19:05 | 50.75147 | 3.33475 | 35170 ft | 459 kts | 29° |
| 2026-04-25 19:06 | 50.80626 | 3.38756 | 35212 ft | 462 kts | 29° |
| 2026-04-25 19:06 | 50.88853 | 3.46702 | 35223 ft | 461 kts | 29° |
| 2026-04-25 19:07 | 50.97064 | 3.54683 | 35220 ft | 461 kts | 29° |
| 2026-04-25 19:08 | 51.05273 | 3.62687 | 35236 ft | 462 kts | 29° |
| 2026-04-25 19:09 | 51.14413 | 3.71630 | 35243 ft | 462 kts | 30° |
| 2026-04-25 19:10 | 51.24434 | 3.81489 | 35244 ft | 462 kts | 29° |
| 2026-04-25 19:10 | 51.29903 | 3.86891 | 35249 ft | 462 kts | 30° |
| 2026-04-25 19:11 | 51.35360 | 3.92293 | 35252 ft | 461 kts | 30° |
| 2026-04-25 19:11 | 51.40772 | 3.97660 | 35252 ft | 460 kts | 30° |
| 2026-04-25 19:12 | 51.46207 | 4.03079 | 35248 ft | 460 kts | 30° |
| 2026-04-25 19:12 | 51.51298 | 4.09323 | 35256 ft | 462 kts | 38° |
| 2026-04-25 19:13 | 51.56175 | 4.16024 | 35248 ft | 461 kts | 38° |
| 2026-04-25 19:13 | 51.61054 | 4.22705 | 35245 ft | 460 kts | 38° |
| 2026-04-25 19:14 | 51.65926 | 4.29389 | 35239 ft | 460 kts | 38° |
| 2026-04-25 19:14 | 51.69994 | 4.35009 | 35246 ft | 460 kts | 39° |
| 2026-04-25 19:15 | 51.74846 | 4.41743 | 35254 ft | 460 kts | 39° |
| 2026-04-25 19:15 | 51.79656 | 4.48426 | 35250 ft | 459 kts | 39° |
| 2026-04-25 19:16 | 51.84487 | 4.55161 | 35248 ft | 458 kts | 39° |
| 2026-04-25 19:16 | 51.89314 | 4.61900 | 35243 ft | 458 kts | 39° |
| 2026-04-25 19:17 | 51.94135 | 4.68640 | 35244 ft | 458 kts | 39° |
| 2026-04-25 19:17 | 51.98948 | 4.75394 | 35251 ft | 457 kts | 39° |
| 2026-04-25 19:18 | 52.03743 | 4.82162 | 35252 ft | 456 kts | 39° |
| 2026-04-25 19:18 | 52.08528 | 4.88938 | 35248 ft | 456 kts | 39° |
| 2026-04-25 19:19 | 52.13305 | 4.95714 | 35245 ft | 455 kts | 39° |
| 2026-04-25 19:19 | 52.18077 | 5.02495 | 35252 ft | 455 kts | 39° |
| 2026-04-25 19:20 | 52.22838 | 5.09274 | 35252 ft | 454 kts | 39° |
| 2026-04-25 19:20 | 52.27584 | 5.16047 | 35248 ft | 453 kts | 39° |
| 2026-04-25 19:21 | 52.32314 | 5.22836 | 35244 ft | 452 kts | 39° |
| 2026-04-25 19:21 | 52.39385 | 5.33037 | 35242 ft | 452 kts | 39° |
| 2026-04-25 19:22 | 52.44096 | 5.39839 | 35250 ft | 451 kts | 39° |
| 2026-04-25 19:23 | 52.51128 | 5.50050 | 35250 ft | 449 kts | 38° |
| 2026-04-25 19:23 | 52.58057 | 5.60419 | 35243 ft | 450 kts | 42° |
| 2026-04-25 19:24 | 52.62403 | 5.67840 | 35239 ft | 450 kts | 44° |
| 2026-04-25 19:25 | 52.71023 | 5.82818 | 35242 ft | 450 kts | 43° |
| 2026-04-25 19:25 | 52.75380 | 5.90222 | 35237 ft | 449 kts | 42° |
| 2026-04-25 19:26 | 52.79743 | 5.97644 | 35233 ft | 449 kts | 43° |
| 2026-04-25 19:26 | 52.84079 | 6.05082 | 35236 ft | 450 kts | 43° |
| 2026-04-25 19:27 | 52.87681 | 6.11290 | 35247 ft | 449 kts | 43° |
| 2026-04-25 19:27 | 52.92730 | 6.20035 | 35240 ft | 448 kts | 43° |
| 2026-04-25 19:28 | 52.97022 | 6.27485 | 35235 ft | 448 kts | 43° |
| 2026-04-25 19:28 | 53.01331 | 6.34959 | 35229 ft | 448 kts | 43° |
| 2026-04-25 19:29 | 53.05606 | 6.42404 | 35229 ft | 448 kts | 43° |
| 2026-04-25 19:29 | 53.09898 | 6.49910 | 35239 ft | 447 kts | 43° |
| 2026-04-25 19:30 | 53.14176 | 6.57420 | 35244 ft | 446 kts | 43° |
| 2026-04-25 19:30 | 53.18444 | 6.64933 | 35251 ft | 446 kts | 43° |
| 2026-04-25 19:31 | 53.22674 | 6.72408 | 35245 ft | 446 kts | 43° |
| 2026-04-25 19:31 | 53.26923 | 6.79935 | 35234 ft | 445 kts | 43° |
| 2026-04-25 19:32 | 53.31164 | 6.87469 | 35212 ft | 445 kts | 43° |
| 2026-04-25 19:32 | 53.34716 | 6.93793 | 35212 ft | 445 kts | 43° |
| 2026-04-25 19:33 | 53.39635 | 7.02578 | 35211 ft | 445 kts | 43° |
| 2026-04-25 19:33 | 53.43870 | 7.10162 | 35211 ft | 445 kts | 43° |
| 2026-04-25 19:34 | 53.48092 | 7.17750 | 35205 ft | 445 kts | 43° |
| 2026-04-25 19:34 | 53.52307 | 7.25348 | 35234 ft | 445 kts | 43° |
| 2026-04-25 19:35 | 53.56506 | 7.32956 | 35204 ft | 443 kts | 42° |
| 2026-04-25 19:35 | 53.60695 | 7.40555 | 35205 ft | 442 kts | 42° |
| 2026-04-25 19:36 | 53.64876 | 7.48167 | 35205 ft | 443 kts | 42° |
| 2026-04-25 19:36 | 53.69019 | 7.55738 | 35204 ft | 443 kts | 42° |
| 2026-04-25 19:37 | 53.73191 | 7.63392 | 35198 ft | 443 kts | 42° |
| 2026-04-25 19:37 | 53.77353 | 7.71056 | 35219 ft | 442 kts | 42° |
| 2026-04-25 19:38 | 53.81500 | 7.78708 | 35207 ft | 441 kts | 42° |
| 2026-04-25 19:38 | 53.85639 | 7.86368 | 35202 ft | 440 kts | 42° |
| 2026-04-25 19:39 | 53.89767 | 7.94023 | 35223 ft | 440 kts | 41° |
| 2026-04-25 19:39 | 53.93884 | 8.01673 | 35198 ft | 439 kts | 41° |
| 2026-04-25 19:40 | 53.97994 | 8.09343 | 35225 ft | 438 kts | 41° |
| 2026-04-25 19:40 | 54.02073 | 8.16999 | 35180 ft | 435 kts | 41° |
| 2026-04-25 19:41 | 54.06129 | 8.24629 | 35182 ft | 436 kts | 41° |
| 2026-04-25 19:41 | 54.08856 | 8.29762 | 35155 ft | 436 kts | 41° |
| 2026-04-25 19:42 | 54.14258 | 8.39979 | 35157 ft | 436 kts | 41° |
| 2026-04-25 19:42 | 54.18315 | 8.47687 | 35153 ft | 436 kts | 41° |
| 2026-04-25 19:43 | 54.22360 | 8.55389 | 35127 ft | 431 kts | 40° |
| 2026-04-25 19:43 | 54.26346 | 8.63014 | 35123 ft | 430 kts | 40° |
| 2026-04-25 19:44 | 54.30344 | 8.70650 | 35129 ft | 431 kts | 40° |
| 2026-04-25 19:44 | 54.34308 | 8.78257 | 35122 ft | 431 kts | 40° |
| 2026-04-25 19:45 | 54.38303 | 8.85951 | 35131 ft | 432 kts | 40° |
| 2026-04-25 19:45 | 54.42287 | 8.93665 | 35170 ft | 432 kts | 40° |
| 2026-04-25 19:46 | 54.46245 | 9.01359 | 35131 ft | 428 kts | 40° |
| 2026-04-25 19:46 | 54.50187 | 9.09025 | 35123 ft | 428 kts | 40° |
| 2026-04-25 19:47 | 54.54128 | 9.16712 | 35160 ft | 428 kts | 39° |
| 2026-04-25 19:47 | 54.58062 | 9.24410 | 35112 ft | 426 kts | 39° |
| 2026-04-25 19:48 | 54.61942 | 9.32034 | 35092 ft | 426 kts | 39° |
| 2026-04-25 19:48 | 54.65852 | 9.39733 | 35139 ft | 426 kts | 39° |
| 2026-04-25 19:49 | 54.68460 | 9.44887 | 35133 ft | 426 kts | 39° |
| 2026-04-25 19:49 | 54.73612 | 9.55121 | 35081 ft | 414 kts | 39° |
| 2026-04-25 19:50 | 54.79351 | 9.66518 | 35079 ft | 423 kts | 39° |
| 2026-04-25 19:51 | 54.83219 | 9.74227 | 35077 ft | 424 kts | 39° |
| 2026-04-25 19:51 | 54.87080 | 9.81991 | 35124 ft | 425 kts | 39° |
| 2026-04-25 19:52 | 54.90914 | 9.89736 | 35087 ft | 421 kts | 38° |
| 2026-04-25 19:52 | 54.94739 | 9.97455 | 35097 ft | 421 kts | 38° |
| 2026-04-25 19:53 | 54.98564 | 10.05188 | 35026 ft | 421 kts | 38° |
| 2026-04-25 19:53 | 55.00485 | 10.09075 | 34127 ft | 427 kts | 38° |
| 2026-04-25 19:53 | 55.02427 | 10.13006 | 33239 ft | 428 kts | 38° |
| 2026-04-25 19:53 | 55.04368 | 10.16954 | 32460 ft | 428 kts | 38° |
| 2026-04-25 19:54 | 55.06163 | 10.20615 | 31689 ft | 429 kts | 38° |
| 2026-04-25 19:54 | 55.08105 | 10.24584 | 30846 ft | 431 kts | 38° |
| 2026-04-25 19:54 | 55.10056 | 10.28577 | 29987 ft | 433 kts | 38° |
| 2026-04-25 19:54 | 55.10690 | 10.29877 | 29605 ft | 435 kts | 38° |
| 2026-04-25 19:55 | 55.13947 | 10.36570 | 27996 ft | 435 kts | 38° |
| 2026-04-25 19:55 | 55.15908 | 10.40606 | 27007 ft | 437 kts | 38° |
| 2026-04-25 19:55 | 55.17691 | 10.45010 | 26420 ft | 450 kts | 51° |
| 2026-04-25 19:55 | 55.18775 | 10.50183 | 26311 ft | 454 kts | 64° |
| 2026-04-25 19:56 | 55.19566 | 10.55544 | 26213 ft | 460 kts | 64° |
| 2026-04-25 19:56 | 55.20358 | 10.61004 | 26115 ft | 464 kts | 64° |
| 2026-04-25 19:56 | 55.21135 | 10.66494 | 26003 ft | 466 kts | 65° |
| 2026-04-25 19:56 | 55.21901 | 10.72019 | 25897 ft | 467 kts | 65° |
| 2026-04-25 19:57 | 55.22660 | 10.77556 | 25797 ft | 468 kts | 65° |
| 2026-04-25 19:57 | 55.23417 | 10.83104 | 25699 ft | 466 kts | 65° |
| 2026-04-25 19:57 | 55.24168 | 10.88618 | 25593 ft | 465 kts | 65° |
| 2026-04-25 19:57 | 55.24919 | 10.94116 | 25492 ft | 464 kts | 65° |
| 2026-04-25 19:58 | 55.25662 | 10.99541 | 25390 ft | 463 kts | 65° |
| 2026-04-25 19:58 | 55.26417 | 11.05034 | 25285 ft | 463 kts | 65° |
| 2026-04-25 19:58 | 55.27170 | 11.10520 | 24496 ft | 462 kts | 64° |
| 2026-04-25 19:58 | 55.27909 | 11.15976 | 23389 ft | 457 kts | 63° |
| 2026-04-25 19:59 | 55.28641 | 11.21431 | 22079 ft | 453 kts | 63° |
| 2026-04-25 19:59 | 55.29351 | 11.26723 | 20847 ft | 449 kts | 63° |
| 2026-04-25 19:59 | 55.30042 | 11.31937 | 19694 ft | 441 kts | 63° |
| 2026-04-25 19:59 | 55.30507 | 11.35467 | 18918 ft | 435 kts | 63° |
| 2026-04-25 20:00 | 55.31403 | 11.42249 | 17366 ft | 426 kts | 64° |
| 2026-04-25 20:00 | 55.31629 | 11.43955 | 16962 ft | 424 kts | 64° |
| 2026-04-25 20:00 | 55.32730 | 11.52232 | 15070 ft | 414 kts | 65° |
| 2026-04-25 20:00 | 55.33382 | 11.57124 | 13990 ft | 408 kts | 65° |
| 2026-04-25 20:01 | 55.34627 | 11.66595 | 12267 ft | 379 kts | 68° |
| 2026-04-25 20:01 | 55.35181 | 11.70942 | 12119 ft | 351 kts | 68° |
| 2026-04-25 20:01 | 55.35689 | 11.74966 | 11970 ft | 325 kts | 68° |
| 2026-04-25 20:02 | 55.36011 | 11.77516 | 11983 ft | 307 kts | 67° |
| 2026-04-25 20:02 | 55.36483 | 11.81147 | 11976 ft | 304 kts | 66° |
| 2026-04-25 20:02 | 55.36966 | 11.84748 | 11875 ft | 303 kts | 66° |
| 2026-04-25 20:02 | 55.37451 | 11.88358 | 11321 ft | 304 kts | 67° |
| 2026-04-25 20:03 | 55.37912 | 11.91848 | 10746 ft | 300 kts | 68° |
| 2026-04-25 20:03 | 55.38374 | 11.95411 | 10140 ft | 297 kts | 70° |
| 2026-04-25 20:03 | 55.38824 | 11.98932 | 9576 ft | 292 kts | 70° |
| 2026-04-25 20:03 | 55.39269 | 12.02430 | 9111 ft | 285 kts | 70° |
| 2026-04-25 20:04 | 55.39693 | 12.05779 | 8654 ft | 283 kts | 70° |
| 2026-04-25 20:04 | 55.40119 | 12.09133 | 8188 ft | 279 kts | 70° |
| 2026-04-25 20:04 | 55.40546 | 12.12477 | 7750 ft | 281 kts | 70° |
| 2026-04-25 20:04 | 55.40971 | 12.15804 | 7442 ft | 277 kts | 70° |
| 2026-04-25 20:05 | 55.41387 | 12.19095 | 6927 ft | 272 kts | 70° |
| 2026-04-25 20:05 | 55.41790 | 12.22324 | 6391 ft | 268 kts | 70° |
| 2026-04-25 20:05 | 55.42181 | 12.25481 | 5905 ft | 262 kts | 70° |
| 2026-04-25 20:05 | 55.42571 | 12.28610 | 5467 ft | 261 kts | 70° |
| 2026-04-25 20:06 | 55.42961 | 12.31728 | 5049 ft | 259 kts | 70° |
| 2026-04-25 20:06 | 55.43380 | 12.34696 | 4510 ft | 257 kts | 62° |
| 2026-04-25 20:06 | 55.44265 | 12.37288 | 4032 ft | 239 kts | 41° |
| 2026-04-25 20:06 | 55.45437 | 12.39194 | 3695 ft | 219 kts | 34° |
| 2026-04-25 20:07 | 55.46520 | 12.40854 | 3405 ft | 196 kts | 34° |
| 2026-04-25 20:07 | 55.47494 | 12.42341 | 3145 ft | 184 kts | 33° |
| 2026-04-25 20:07 | 55.48443 | 12.43790 | 2916 ft | 174 kts | 33° |
| 2026-04-25 20:07 | 55.49304 | 12.45114 | 2660 ft | 154 kts | 32° |
| 2026-04-25 20:08 | 55.50065 | 12.46283 | 2474 ft | 139 kts | 31° |
| 2026-04-25 20:08 | 55.50788 | 12.47386 | 2275 ft | 136 kts | 30° |
| 2026-04-25 20:08 | 55.51496 | 12.48470 | 2094 ft | 134 kts | 30° |
| 2026-04-25 20:08 | 55.52193 | 12.49538 | 1903 ft | 132 kts | 30° |
| 2026-04-25 20:09 | 55.52887 | 12.50603 | 1726 ft | 132 kts | 30° |
| 2026-04-25 20:09 | 55.53578 | 12.51664 | 1534 ft | 131 kts | 30° |
| 2026-04-25 20:09 | 55.54273 | 12.52742 | 1334 ft | 133 kts | 31° |
| 2026-04-25 20:09 | 55.54971 | 12.53797 | 1126 ft | 132 kts | 31° |
| 2026-04-25 20:10 | 55.55430 | 12.54493 | 995 ft | 132 kts | 31° |
| 2026-04-25 20:10 | 55.56352 | 12.55960 | 762 ft | 133 kts | 31° |
| 2026-04-25 20:10 | 55.57068 | 12.57050 | 583 ft | 138 kts | 34° |
| 2026-04-25 20:10 | 55.57801 | 12.58155 | 419 ft | 139 kts | 36° |
| 2026-04-25 20:11 | 55.58530 | 12.59294 | 252 ft | 140 kts | 32° |
| 2026-04-25 20:11 | 55.59245 | 12.60382 | 62 ft | 138 kts | 34° |
| 2026-04-25 20:11 | 55.59887 | 12.61355 | 23 ft | 103 kts | 41° |
| 2026-04-25 20:11 | 55.60297 | 12.62011 | 24 ft | 55 kts | 41° |
| 2026-04-25 20:12 | 55.60537 | 12.62384 | 27 ft | 43 kts | 41° |
| 2026-04-25 20:12 | 55.60754 | 12.62722 | 29 ft | 41 kts | 41° |
| 2026-04-25 20:12 | 55.60966 | 12.63044 | 24 ft | 39 kts | 41° |
| 2026-04-25 20:12 | 55.61097 | 12.63249 | 27 ft | 37 kts | 41° |
| 2026-04-25 20:13 | 55.61345 | 12.63637 | 29 ft | 25 kts | 40° |
| 2026-04-25 20:13 | 55.61452 | 12.63688 | 24 ft | 17 kts | 357° |
| 2026-04-25 20:13 | 55.61570 | 12.63672 | 24 ft | 17 kts | 355° |
| 2026-04-25 20:13 | 55.61667 | 12.63751 | 24 ft | 16 kts | 41° |
| 2026-04-25 20:14 | 55.61755 | 12.63890 | 24 ft | 18 kts | 43° |
| 2026-04-25 20:14 | 55.61854 | 12.64043 | 24 ft | 20 kts | 41° |
| 2026-04-25 20:14 | 55.61977 | 12.64155 | 26 ft | 20 kts | 25° |
| 2026-04-25 20:14 | 55.62107 | 12.64268 | 24 ft | 21 kts | 26° |
| 2026-04-25 20:15 | 55.62248 | 12.64382 | 22 ft | 23 kts | 19° |
| 2026-04-25 20:15 | 55.62395 | 12.64450 | 24 ft | 16 kts | 13° |
| 2026-04-25 20:15 | 55.62485 | 12.64476 | 24 ft | 10 kts | 348° |
| 2026-04-25 20:15 | 55.62529 | 12.64394 | 25 ft | 6 kts | 303° |
| 2026-04-25 20:16 | 55.62550 | 12.64335 | 26 ft | 3 kts | 303° |
| 2026-04-25 20:16 | 55.62555 | 12.64322 | 25 ft | 2 kts | 303° |
| 2026-04-25 20:16 | 55.62560 | 12.64309 | 24 ft | 0 kts | 302° |
| 2026-04-25 20:19 | 55.62569 | 12.64283 | 25 ft | 5 kts | 302° |
| 2026-04-25 20:19 | 55.62602 | 12.64266 | 24 ft | 6 kts | 16° |
| 2026-04-25 20:19 | 55.62651 | 12.64303 | 24 ft | 9 kts | 22° |
| 2026-04-25 20:20 | 55.62717 | 12.64351 | 25 ft | 12 kts | 25° |
| 2026-04-25 20:20 | 55.62738 | 12.64369 | 24 ft | 1 kts | 25° |
| 2026-04-25 20:20 | 55.62747 | 12.64376 | 25 ft | 3 kts | 26° |
| 2026-04-25 20:20 | 55.62759 | 12.64405 | 24 ft | 1 kts | 74° |
| 2026-04-25 20:21 | 55.62759 | 12.64432 | 24 ft | 3 kts | 92° |
| 2026-04-25 20:21 | 55.62758 | 12.64450 | 24 ft | 2 kts | 98° |
| 2026-04-25 20:21 | 55.62755 | 12.64471 | 24 ft | 2 kts | 101° |
| 2026-04-25 20:21 | 55.62755 | 12.64477 | 24 ft | 0 kts | 101° |